sensor_id;sensor_type;location;lat;lon;timestamp;P1;durP1;ratioP1;P2;durP2;ratioP2
71600;SDS011;59446;52.192;4.628;2022-11-15T00:01:26;9.33;;;4.37;;
71600;SDS011;59446;52.192;4.628;2022-11-15T00:03:51;8.83;;;4.10;;
71600;SDS011;59446;52.192;4.628;2022-11-15T00:06:17;8.73;;;4.17;;
71600;SDS011;59446;52.192;4.628;2022-11-15T00:08:42;9.95;;;3.70;;
71600;SDS011;59446;52.192;4.628;2022-11-15T00:11:09;11.63;;;4.47;;
71600;SDS011;59446;52.192;4.628;2022-11-15T00:13:36;8.88;;;4.88;;
71600;SDS011;59446;52.192;4.628;2022-11-15T00:16:01;9.47;;;4.37;;
71600;SDS011;59446;52.192;4.628;2022-11-15T00:18:28;11.00;;;4.00;;
71600;SDS011;59446;52.192;4.628;2022-11-15T00:20:54;10.80;;;4.47;;
71600;SDS011;59446;52.192;4.628;2022-11-15T00:23:19;9.82;;;3.63;;
71600;SDS011;59446;52.192;4.628;2022-11-15T00:25:45;9.97;;;4.77;;
71600;SDS011;59446;52.192;4.628;2022-11-15T00:28:10;9.17;;;3.50;;
71600;SDS011;59446;52.192;4.628;2022-11-15T00:30:36;9.57;;;4.20;;
71600;SDS011;59446;52.192;4.628;2022-11-15T00:33:02;8.17;;;3.73;;
71600;SDS011;59446;52.192;4.628;2022-11-15T00:35:30;9.52;;;3.88;;
71600;SDS011;59446;52.192;4.628;2022-11-15T00:37:57;9.17;;;4.30;;
71600;SDS011;59446;52.192;4.628;2022-11-15T00:40:22;7.85;;;3.63;;
71600;SDS011;59446;52.192;4.628;2022-11-15T00:42:47;8.00;;;3.77;;
71600;SDS011;59446;52.192;4.628;2022-11-15T00:45:13;8.93;;;4.17;;
71600;SDS011;59446;52.192;4.628;2022-11-15T00:47:38;8.77;;;3.80;;
71600;SDS011;59446;52.192;4.628;2022-11-15T00:50:04;8.00;;;3.60;;
71600;SDS011;59446;52.192;4.628;2022-11-15T00:52:29;8.88;;;3.95;;
71600;SDS011;59446;52.192;4.628;2022-11-15T00:54:55;9.87;;;4.33;;
71600;SDS011;59446;52.192;4.628;2022-11-15T00:57:20;8.10;;;3.93;;
71600;SDS011;59446;52.192;4.628;2022-11-15T00:59:45;9.07;;;3.60;;
71600;SDS011;59446;52.192;4.628;2022-11-15T01:02:11;9.67;;;3.80;;
71600;SDS011;59446;52.192;4.628;2022-11-15T01:04:36;8.13;;;3.88;;
71600;SDS011;59446;52.192;4.628;2022-11-15T01:07:01;7.43;;;4.30;;
71600;SDS011;59446;52.192;4.628;2022-11-15T01:09:27;6.37;;;3.00;;
71600;SDS011;59446;52.192;4.628;2022-11-15T01:11:53;8.82;;;4.03;;
71600;SDS011;59446;52.192;4.628;2022-11-15T01:14:18;8.07;;;3.60;;
71600;SDS011;59446;52.192;4.628;2022-11-15T01:16:43;6.50;;;3.40;;
71600;SDS011;59446;52.192;4.628;2022-11-15T01:19:09;7.50;;;3.17;;
71600;SDS011;59446;52.192;4.628;2022-11-15T01:21:34;7.17;;;3.60;;
71600;SDS011;59446;52.192;4.628;2022-11-15T01:24:00;8.40;;;3.47;;
71600;SDS011;59446;52.192;4.628;2022-11-15T01:26:25;9.37;;;4.33;;
71600;SDS011;59446;52.192;4.628;2022-11-15T01:28:50;9.57;;;3.13;;
71600;SDS011;59446;52.192;4.628;2022-11-15T01:31:20;9.57;;;3.73;;
71600;SDS011;59446;52.192;4.628;2022-11-15T01:33:46;9.75;;;4.00;;
71600;SDS011;59446;52.192;4.628;2022-11-15T01:36:16;7.70;;;3.20;;
71600;SDS011;59446;52.192;4.628;2022-11-15T01:38:44;8.90;;;3.37;;
71600;SDS011;59446;52.192;4.628;2022-11-15T01:41:16;9.75;;;4.32;;
71600;SDS011;59446;52.192;4.628;2022-11-15T01:43:43;8.18;;;4.22;;
71600;SDS011;59446;52.192;4.628;2022-11-15T01:48:43;8.80;;;3.33;;
71600;SDS011;59446;52.192;4.628;2022-11-15T01:51:09;7.20;;;3.40;;
71600;SDS011;59446;52.192;4.628;2022-11-15T01:53:38;7.63;;;3.40;;
71600;SDS011;59446;52.192;4.628;2022-11-15T01:56:08;7.80;;;3.53;;
71600;SDS011;59446;52.192;4.628;2022-11-15T01:58:38;7.17;;;3.27;;
71600;SDS011;59446;52.192;4.628;2022-11-15T02:01:06;7.88;;;3.67;;
71600;SDS011;59446;52.192;4.628;2022-11-15T02:03:34;8.73;;;3.60;;
71600;SDS011;59446;52.192;4.628;2022-11-15T02:06:05;6.93;;;3.13;;
71600;SDS011;59446;52.192;4.628;2022-11-15T02:08:30;6.37;;;3.27;;
71600;SDS011;59446;52.192;4.628;2022-11-15T02:10:56;6.47;;;3.07;;
71600;SDS011;59446;52.192;4.628;2022-11-15T02:13:21;7.35;;;3.22;;
71600;SDS011;59446;52.192;4.628;2022-11-15T02:19:01;6.43;;;3.13;;
71600;SDS011;59446;52.192;4.628;2022-11-15T02:32:47;8.73;;;3.90;;
71600;SDS011;59446;52.192;4.628;2022-11-15T02:35:23;6.97;;;3.08;;
71600;SDS011;59446;52.192;4.628;2022-11-15T02:38:04;10.18;;;3.55;;
71600;SDS011;59446;52.192;4.628;2022-11-15T02:43:43;7.63;;;2.70;;
71600;SDS011;59446;52.192;4.628;2022-11-15T02:46:36;9.00;;;3.67;;
71600;SDS011;59446;52.192;4.628;2022-11-15T02:49:25;5.68;;;2.78;;
71600;SDS011;59446;52.192;4.628;2022-11-15T02:51:54;7.33;;;3.07;;
71600;SDS011;59446;52.192;4.628;2022-11-15T02:54:22;7.22;;;3.15;;
71600;SDS011;59446;52.192;4.628;2022-11-15T02:56:54;8.55;;;3.20;;
71600;SDS011;59446;52.192;4.628;2022-11-15T03:02:27;7.00;;;2.95;;
71600;SDS011;59446;52.192;4.628;2022-11-15T03:04:56;7.88;;;3.00;;
71600;SDS011;59446;52.192;4.628;2022-11-15T03:07:30;6.20;;;2.78;;
71600;SDS011;59446;52.192;4.628;2022-11-15T03:10:05;7.23;;;2.83;;
71600;SDS011;59446;52.192;4.628;2022-11-15T03:15:01;7.30;;;2.70;;
71600;SDS011;59446;52.192;4.628;2022-11-15T03:17:34;7.45;;;3.42;;
71600;SDS011;59446;52.192;4.628;2022-11-15T03:20:04;7.63;;;3.40;;
71600;SDS011;59446;52.192;4.628;2022-11-15T03:22:33;8.10;;;2.97;;
71600;SDS011;59446;52.192;4.628;2022-11-15T03:25:04;6.10;;;3.00;;
71600;SDS011;59446;52.192;4.628;2022-11-15T03:27:43;7.07;;;2.92;;
71600;SDS011;59446;52.192;4.628;2022-11-15T03:30:11;5.73;;;2.53;;
71600;SDS011;59446;52.192;4.628;2022-11-15T03:32:40;7.38;;;2.70;;
71600;SDS011;59446;52.192;4.628;2022-11-15T03:35:11;6.72;;;2.70;;
71600;SDS011;59446;52.192;4.628;2022-11-15T03:37:42;6.17;;;2.37;;
71600;SDS011;59446;52.192;4.628;2022-11-15T03:40:14;5.43;;;2.67;;
71600;SDS011;59446;52.192;4.628;2022-11-15T03:42:48;6.88;;;2.85;;
71600;SDS011;59446;52.192;4.628;2022-11-15T03:45:41;5.80;;;2.57;;
71600;SDS011;59446;52.192;4.628;2022-11-15T03:48:17;7.97;;;3.28;;
71600;SDS011;59446;52.192;4.628;2022-11-15T03:50:46;6.78;;;2.70;;
71600;SDS011;59446;52.192;4.628;2022-11-15T03:53:13;7.28;;;3.17;;
71600;SDS011;59446;52.192;4.628;2022-11-15T03:55:38;6.63;;;2.57;;
71600;SDS011;59446;52.192;4.628;2022-11-15T03:58:04;6.73;;;2.43;;
71600;SDS011;59446;52.192;4.628;2022-11-15T04:00:29;7.40;;;3.47;;
71600;SDS011;59446;52.192;4.628;2022-11-15T04:02:55;7.10;;;3.15;;
71600;SDS011;59446;52.192;4.628;2022-11-15T04:05:21;7.93;;;2.97;;
71600;SDS011;59446;52.192;4.628;2022-11-15T04:07:46;6.35;;;2.75;;
71600;SDS011;59446;52.192;4.628;2022-11-15T04:10:11;6.67;;;3.10;;
71600;SDS011;59446;52.192;4.628;2022-11-15T04:12:39;7.47;;;2.83;;
71600;SDS011;59446;52.192;4.628;2022-11-15T04:15:11;6.00;;;2.90;;
71600;SDS011;59446;52.192;4.628;2022-11-15T04:17:45;5.95;;;2.55;;
71600;SDS011;59446;52.192;4.628;2022-11-15T04:23:09;6.93;;;3.10;;
71600;SDS011;59446;52.192;4.628;2022-11-15T04:25:56;4.57;;;2.20;;
71600;SDS011;59446;52.192;4.628;2022-11-15T04:28:24;5.22;;;2.45;;
71600;SDS011;59446;52.192;4.628;2022-11-15T04:30:50;8.17;;;3.03;;
71600;SDS011;59446;52.192;4.628;2022-11-15T04:33:15;6.53;;;3.37;;
71600;SDS011;59446;52.192;4.628;2022-11-15T04:35:41;6.73;;;3.07;;
71600;SDS011;59446;52.192;4.628;2022-11-15T04:38:08;6.38;;;2.42;;
71600;SDS011;59446;52.192;4.628;2022-11-15T04:40:35;8.52;;;2.85;;
71600;SDS011;59446;52.192;4.628;2022-11-15T04:43:01;5.93;;;2.47;;
71600;SDS011;59446;52.192;4.628;2022-11-15T04:45:26;6.90;;;2.78;;
71600;SDS011;59446;52.192;4.628;2022-11-15T04:47:52;6.83;;;2.80;;
71600;SDS011;59446;52.192;4.628;2022-11-15T04:50:17;6.03;;;3.07;;
71600;SDS011;59446;52.192;4.628;2022-11-15T04:52:43;6.97;;;2.40;;
71600;SDS011;59446;52.192;4.628;2022-11-15T04:55:15;6.65;;;2.67;;
71600;SDS011;59446;52.192;4.628;2022-11-15T04:57:41;5.23;;;2.50;;
71600;SDS011;59446;52.192;4.628;2022-11-15T05:00:08;5.93;;;2.73;;
71600;SDS011;59446;52.192;4.628;2022-11-15T05:02:35;5.63;;;2.65;;
71600;SDS011;59446;52.192;4.628;2022-11-15T05:05:19;5.53;;;2.80;;
71600;SDS011;59446;52.192;4.628;2022-11-15T05:07:45;7.20;;;2.40;;
71600;SDS011;59446;52.192;4.628;2022-11-15T05:10:10;5.27;;;2.20;;
71600;SDS011;59446;52.192;4.628;2022-11-15T05:12:36;5.15;;;2.00;;
71600;SDS011;59446;52.192;4.628;2022-11-15T05:15:02;6.60;;;2.40;;
71600;SDS011;59446;52.192;4.628;2022-11-15T05:17:28;6.63;;;2.60;;
71600;SDS011;59446;52.192;4.628;2022-11-15T05:19:53;5.33;;;2.53;;
71600;SDS011;59446;52.192;4.628;2022-11-15T05:22:19;8.03;;;2.47;;
71600;SDS011;59446;52.192;4.628;2022-11-15T05:24:44;4.53;;;2.15;;
71600;SDS011;59446;52.192;4.628;2022-11-15T05:27:10;5.90;;;2.30;;
71600;SDS011;59446;52.192;4.628;2022-11-15T05:29:35;5.43;;;2.73;;
71600;SDS011;59446;52.192;4.628;2022-11-15T05:32:00;4.43;;;2.17;;
71600;SDS011;59446;52.192;4.628;2022-11-15T05:34:27;4.80;;;2.10;;
71600;SDS011;59446;52.192;4.628;2022-11-15T05:36:53;5.47;;;2.40;;
71600;SDS011;59446;52.192;4.628;2022-11-15T05:39:18;7.87;;;3.43;;
71600;SDS011;59446;52.192;4.628;2022-11-15T05:41:44;3.77;;;1.77;;
71600;SDS011;59446;52.192;4.628;2022-11-15T05:44:21;5.07;;;2.03;;
71600;SDS011;59446;52.192;4.628;2022-11-15T05:46:49;4.05;;;2.00;;
71600;SDS011;59446;52.192;4.628;2022-11-15T05:49:19;6.20;;;2.60;;
71600;SDS011;59446;52.192;4.628;2022-11-15T05:51:47;5.25;;;2.20;;
71600;SDS011;59446;52.192;4.628;2022-11-15T05:54:13;5.88;;;2.08;;
71600;SDS011;59446;52.192;4.628;2022-11-15T05:56:39;5.05;;;2.53;;
71600;SDS011;59446;52.192;4.628;2022-11-15T05:59:05;7.27;;;2.67;;
71600;SDS011;59446;52.192;4.628;2022-11-15T06:01:32;4.97;;;2.20;;
71600;SDS011;59446;52.192;4.628;2022-11-15T06:03:57;5.50;;;2.50;;
71600;SDS011;59446;52.192;4.628;2022-11-15T06:06:23;5.27;;;2.43;;
71600;SDS011;59446;52.192;4.628;2022-11-15T06:08:48;5.27;;;1.90;;
71600;SDS011;59446;52.192;4.628;2022-11-15T06:11:13;4.07;;;2.03;;
71600;SDS011;59446;52.192;4.628;2022-11-15T06:13:39;4.82;;;1.95;;
71600;SDS011;59446;52.192;4.628;2022-11-15T06:16:04;6.23;;;2.17;;
71600;SDS011;59446;52.192;4.628;2022-11-15T06:18:33;4.93;;;2.40;;
71600;SDS011;59446;52.192;4.628;2022-11-15T06:20:59;5.15;;;1.92;;
71600;SDS011;59446;52.192;4.628;2022-11-15T06:23:25;5.72;;;2.22;;
71600;SDS011;59446;52.192;4.628;2022-11-15T06:25:51;4.47;;;2.17;;
71600;SDS011;59446;52.192;4.628;2022-11-15T06:28:16;4.93;;;2.07;;
71600;SDS011;59446;52.192;4.628;2022-11-15T06:30:41;6.20;;;2.27;;
71600;SDS011;59446;52.192;4.628;2022-11-15T06:33:07;4.80;;;2.28;;
71600;SDS011;59446;52.192;4.628;2022-11-15T06:35:33;4.03;;;1.80;;
71600;SDS011;59446;52.192;4.628;2022-11-15T06:38:03;5.30;;;2.15;;
71600;SDS011;59446;52.192;4.628;2022-11-15T06:40:33;5.13;;;2.05;;
71600;SDS011;59446;52.192;4.628;2022-11-15T06:43:02;5.43;;;2.00;;
71600;SDS011;59446;52.192;4.628;2022-11-15T06:45:28;4.55;;;1.90;;
71600;SDS011;59446;52.192;4.628;2022-11-15T06:47:54;5.53;;;2.53;;
71600;SDS011;59446;52.192;4.628;2022-11-15T06:50:20;4.53;;;1.93;;
71600;SDS011;59446;52.192;4.628;2022-11-15T06:52:45;5.97;;;2.57;;
71600;SDS011;59446;52.192;4.628;2022-11-15T06:55:10;4.70;;;1.90;;
71600;SDS011;59446;52.192;4.628;2022-11-15T06:57:36;3.53;;;1.50;;
71600;SDS011;59446;52.192;4.628;2022-11-15T07:00:05;5.45;;;1.80;;
71600;SDS011;59446;52.192;4.628;2022-11-15T07:02:30;5.53;;;1.75;;
71600;SDS011;59446;52.192;4.628;2022-11-15T07:04:56;4.07;;;1.93;;
71600;SDS011;59446;52.192;4.628;2022-11-15T07:07:21;7.43;;;2.40;;
71600;SDS011;59446;52.192;4.628;2022-11-15T07:09:47;4.03;;;2.03;;
71600;SDS011;59446;52.192;4.628;2022-11-15T07:12:12;5.87;;;2.47;;
71600;SDS011;59446;52.192;4.628;2022-11-15T07:14:37;4.85;;;1.88;;
71600;SDS011;59446;52.192;4.628;2022-11-15T07:17:03;3.90;;;1.60;;
71600;SDS011;59446;52.192;4.628;2022-11-15T07:19:30;3.88;;;2.03;;
71600;SDS011;59446;52.192;4.628;2022-11-15T07:21:56;5.43;;;2.17;;
71600;SDS011;59446;52.192;4.628;2022-11-15T07:24:21;4.68;;;1.90;;
71600;SDS011;59446;52.192;4.628;2022-11-15T07:26:46;5.37;;;1.97;;
71600;SDS011;59446;52.192;4.628;2022-11-15T07:29:12;4.67;;;2.07;;
71600;SDS011;59446;52.192;4.628;2022-11-15T07:31:37;4.90;;;1.70;;
71600;SDS011;59446;52.192;4.628;2022-11-15T07:34:03;5.83;;;2.17;;
71600;SDS011;59446;52.192;4.628;2022-11-15T07:36:28;5.30;;;1.92;;
71600;SDS011;59446;52.192;4.628;2022-11-15T07:38:53;5.53;;;2.40;;
71600;SDS011;59446;52.192;4.628;2022-11-15T07:41:19;3.07;;;1.60;;
71600;SDS011;59446;52.192;4.628;2022-11-15T07:43:44;3.43;;;1.97;;
71600;SDS011;59446;52.192;4.628;2022-11-15T07:46:09;4.70;;;1.97;;
71600;SDS011;59446;52.192;4.628;2022-11-15T07:48:35;3.63;;;2.00;;
71600;SDS011;59446;52.192;4.628;2022-11-15T07:51:02;5.05;;;2.47;;
71600;SDS011;59446;52.192;4.628;2022-11-15T07:53:27;4.30;;;1.88;;
71600;SDS011;59446;52.192;4.628;2022-11-15T07:55:53;4.17;;;1.97;;
71600;SDS011;59446;52.192;4.628;2022-11-15T07:58:18;3.87;;;1.90;;
71600;SDS011;59446;52.192;4.628;2022-11-15T08:00:44;3.78;;;1.73;;
71600;SDS011;59446;52.192;4.628;2022-11-15T08:03:11;4.67;;;1.97;;
71600;SDS011;59446;52.192;4.628;2022-11-15T08:05:38;3.17;;;1.70;;
71600;SDS011;59446;52.192;4.628;2022-11-15T08:08:04;4.18;;;1.60;;
71600;SDS011;59446;52.192;4.628;2022-11-15T08:10:31;3.17;;;1.53;;
71600;SDS011;59446;52.192;4.628;2022-11-15T08:13:00;4.75;;;1.70;;
71600;SDS011;59446;52.192;4.628;2022-11-15T08:15:30;3.45;;;2.13;;
71600;SDS011;59446;52.192;4.628;2022-11-15T08:17:56;2.93;;;1.40;;
71600;SDS011;59446;52.192;4.628;2022-11-15T08:20:23;3.33;;;1.58;;
71600;SDS011;59446;52.192;4.628;2022-11-15T08:22:49;4.18;;;1.40;;
71600;SDS011;59446;52.192;4.628;2022-11-15T08:25:15;3.30;;;1.30;;
71600;SDS011;59446;52.192;4.628;2022-11-15T08:27:40;3.87;;;1.77;;
71600;SDS011;59446;52.192;4.628;2022-11-15T08:30:06;3.57;;;1.43;;
71600;SDS011;59446;52.192;4.628;2022-11-15T08:32:32;3.43;;;1.57;;
71600;SDS011;59446;52.192;4.628;2022-11-15T08:34:57;5.50;;;1.80;;
71600;SDS011;59446;52.192;4.628;2022-11-15T08:37:23;4.27;;;1.60;;
71600;SDS011;59446;52.192;4.628;2022-11-15T08:39:48;3.50;;;1.70;;
71600;SDS011;59446;52.192;4.628;2022-11-15T08:42:13;3.47;;;1.33;;
71600;SDS011;59446;52.192;4.628;2022-11-15T08:44:41;1.95;;;1.13;;
71600;SDS011;59446;52.192;4.628;2022-11-15T08:47:06;3.20;;;1.10;;
71600;SDS011;59446;52.192;4.628;2022-11-15T08:49:32;3.17;;;1.40;;
71600;SDS011;59446;52.192;4.628;2022-11-15T08:51:57;2.87;;;1.30;;
71600;SDS011;59446;52.192;4.628;2022-11-15T08:54:22;4.17;;;1.53;;
71600;SDS011;59446;52.192;4.628;2022-11-15T08:56:48;2.40;;;1.20;;
71600;SDS011;59446;52.192;4.628;2022-11-15T08:59:13;3.97;;;1.30;;
71600;SDS011;59446;52.192;4.628;2022-11-15T09:01:38;2.30;;;1.03;;
71600;SDS011;59446;52.192;4.628;2022-11-15T09:04:04;3.27;;;1.30;;
71600;SDS011;59446;52.192;4.628;2022-11-15T09:06:30;5.28;;;1.65;;
71600;SDS011;59446;52.192;4.628;2022-11-15T09:08:56;2.70;;;1.30;;
71600;SDS011;59446;52.192;4.628;2022-11-15T09:11:21;2.53;;;1.37;;
71600;SDS011;59446;52.192;4.628;2022-11-15T09:13:48;3.78;;;1.40;;
71600;SDS011;59446;52.192;4.628;2022-11-15T09:16:14;4.22;;;1.70;;
71600;SDS011;59446;52.192;4.628;2022-11-15T09:18:40;4.00;;;1.50;;
71600;SDS011;59446;52.192;4.628;2022-11-15T09:21:06;3.25;;;1.55;;
71600;SDS011;59446;52.192;4.628;2022-11-15T09:23:31;3.73;;;1.30;;
71600;SDS011;59446;52.192;4.628;2022-11-15T09:26:00;3.43;;;1.63;;
71600;SDS011;59446;52.192;4.628;2022-11-15T09:28:27;3.17;;;1.58;;
71600;SDS011;59446;52.192;4.628;2022-11-15T09:30:57;3.60;;;1.42;;
71600;SDS011;59446;52.192;4.628;2022-11-15T09:33:24;2.58;;;1.25;;
71600;SDS011;59446;52.192;4.628;2022-11-15T09:35:49;2.53;;;1.67;;
71600;SDS011;59446;52.192;4.628;2022-11-15T09:38:14;2.77;;;1.70;;
71600;SDS011;59446;52.192;4.628;2022-11-15T09:40:40;2.53;;;1.83;;
71600;SDS011;59446;52.192;4.628;2022-11-15T09:49:08;3.80;;;1.38;;
71600;SDS011;59446;52.192;4.628;2022-11-15T09:51:38;3.47;;;1.42;;
71600;SDS011;59446;52.192;4.628;2022-11-15T09:57:44;3.70;;;1.88;;
71600;SDS011;59446;52.192;4.628;2022-11-15T10:05:40;2.65;;;1.33;;
71600;SDS011;59446;52.192;4.628;2022-11-15T10:08:22;1.88;;;1.17;;
71600;SDS011;59446;52.192;4.628;2022-11-15T10:11:08;2.22;;;1.35;;
71600;SDS011;59446;52.192;4.628;2022-11-15T10:13:36;5.30;;;1.80;;
71600;SDS011;59446;52.192;4.628;2022-11-15T10:18:59;38.15;;;11.43;;
71600;SDS011;59446;52.192;4.628;2022-11-15T10:21:34;19.03;;;5.53;;
71600;SDS011;59446;52.192;4.628;2022-11-15T10:24:07;14.32;;;5.15;;
71600;SDS011;59446;52.192;4.628;2022-11-15T10:26:36;11.23;;;4.38;;
71600;SDS011;59446;52.192;4.628;2022-11-15T10:29:01;11.77;;;3.80;;
71600;SDS011;59446;52.192;4.628;2022-11-15T10:31:28;10.00;;;2.93;;
71600;SDS011;59446;52.192;4.628;2022-11-15T10:34:36;7.10;;;2.30;;
71600;SDS011;59446;52.192;4.628;2022-11-15T10:36:46;6.87;;;2.73;;
71600;SDS011;59446;52.192;4.628;2022-11-15T10:39:20;8.30;;;3.00;;
71600;SDS011;59446;52.192;4.628;2022-11-15T10:41:45;12.33;;;2.83;;
71600;SDS011;59446;52.192;4.628;2022-11-15T10:44:21;8.63;;;2.78;;
71600;SDS011;59446;52.192;4.628;2022-11-15T10:49:20;5.57;;;2.20;;
71600;SDS011;59446;52.192;4.628;2022-11-15T10:51:58;5.15;;;2.42;;
71600;SDS011;59446;52.192;4.628;2022-11-15T10:55:19;13.27;;;2.53;;
71600;SDS011;59446;52.192;4.628;2022-11-15T10:57:37;6.00;;;2.03;;
71600;SDS011;59446;52.192;4.628;2022-11-15T11:00:05;7.88;;;2.47;;
71600;SDS011;59446;52.192;4.628;2022-11-15T11:02:57;4.57;;;2.30;;
71600;SDS011;59446;52.192;4.628;2022-11-15T11:05:27;6.93;;;2.53;;
71600;SDS011;59446;52.192;4.628;2022-11-15T11:08:21;5.30;;;1.80;;
71600;SDS011;59446;52.192;4.628;2022-11-15T11:10:52;4.95;;;1.98;;
71600;SDS011;59446;52.192;4.628;2022-11-15T11:13:23;5.57;;;1.83;;
71600;SDS011;59446;52.192;4.628;2022-11-15T11:15:58;6.13;;;2.50;;
71600;SDS011;59446;52.192;4.628;2022-11-15T11:21:10;4.17;;;1.50;;
71600;SDS011;59446;52.192;4.628;2022-11-15T11:23:45;5.07;;;2.00;;
71600;SDS011;59446;52.192;4.628;2022-11-15T11:40:16;3.87;;;1.23;;
71600;SDS011;59446;52.192;4.628;2022-11-15T11:45:54;5.63;;;1.60;;
71600;SDS011;59446;52.192;4.628;2022-11-15T11:48:43;4.60;;;1.60;;
71600;SDS011;59446;52.192;4.628;2022-11-15T11:51:16;4.32;;;1.70;;
71600;SDS011;59446;52.192;4.628;2022-11-15T11:53:48;4.60;;;1.52;;
71600;SDS011;59446;52.192;4.628;2022-11-15T11:56:29;5.10;;;1.83;;
71600;SDS011;59446;52.192;4.628;2022-11-15T11:59:10;3.53;;;1.40;;
71600;SDS011;59446;52.192;4.628;2022-11-15T12:01:44;4.20;;;1.80;;
71600;SDS011;59446;52.192;4.628;2022-11-15T12:04:18;5.57;;;1.47;;
71600;SDS011;59446;52.192;4.628;2022-11-15T12:06:59;5.22;;;1.23;;
71600;SDS011;59446;52.192;4.628;2022-11-15T12:11:58;4.93;;;1.50;;
71600;SDS011;59446;52.192;4.628;2022-11-15T12:15:10;5.03;;;1.70;;
71600;SDS011;59446;52.192;4.628;2022-11-15T12:17:19;3.23;;;1.33;;
71600;SDS011;59446;52.192;4.628;2022-11-15T12:19:48;3.35;;;1.20;;
71600;SDS011;59446;52.192;4.628;2022-11-15T12:22:19;5.27;;;2.17;;
71600;SDS011;59446;52.192;4.628;2022-11-15T12:24:50;3.55;;;1.40;;
71600;SDS011;59446;52.192;4.628;2022-11-15T12:27:32;4.05;;;1.40;;
71600;SDS011;59446;52.192;4.628;2022-11-15T12:30:03;2.85;;;1.27;;
71600;SDS011;59446;52.192;4.628;2022-11-15T12:32:36;4.07;;;1.67;;
71600;SDS011;59446;52.192;4.628;2022-11-15T12:35:04;5.68;;;1.70;;
71600;SDS011;59446;52.192;4.628;2022-11-15T12:37:47;4.03;;;1.50;;
71600;SDS011;59446;52.192;4.628;2022-11-15T12:40:24;4.40;;;1.47;;
71600;SDS011;59446;52.192;4.628;2022-11-15T12:45:26;4.10;;;1.38;;
71600;SDS011;59446;52.192;4.628;2022-11-15T12:51:00;2.03;;;1.00;;
71600;SDS011;59446;52.192;4.628;2022-11-15T12:58:27;3.63;;;1.40;;
71600;SDS011;59446;52.192;4.628;2022-11-15T13:01:06;3.65;;;1.30;;
71600;SDS011;59446;52.192;4.628;2022-11-15T13:03:32;2.80;;;1.40;;
71600;SDS011;59446;52.192;4.628;2022-11-15T13:05:59;2.65;;;1.35;;
71600;SDS011;59446;52.192;4.628;2022-11-15T13:08:44;4.53;;;1.45;;
71600;SDS011;59446;52.192;4.628;2022-11-15T13:14:38;2.43;;;1.00;;
71600;SDS011;59446;52.192;4.628;2022-11-15T13:19:48;3.00;;;1.37;;
71600;SDS011;59446;52.192;4.628;2022-11-15T13:22:18;4.60;;;1.20;;
71600;SDS011;59446;52.192;4.628;2022-11-15T13:25:02;3.00;;;1.23;;
71600;SDS011;59446;52.192;4.628;2022-11-15T13:27:28;3.95;;;1.38;;
71600;SDS011;59446;52.192;4.628;2022-11-15T13:29:54;3.80;;;1.53;;
71600;SDS011;59446;52.192;4.628;2022-11-15T13:32:20;2.37;;;0.97;;
71600;SDS011;59446;52.192;4.628;2022-11-15T13:34:47;2.65;;;1.30;;
71600;SDS011;59446;52.192;4.628;2022-11-15T13:39:45;4.90;;;1.10;;
71600;SDS011;59446;52.192;4.628;2022-11-15T13:42:14;2.47;;;1.10;;
71600;SDS011;59446;52.192;4.628;2022-11-15T13:44:40;3.42;;;1.30;;
71600;SDS011;59446;52.192;4.628;2022-11-15T13:47:20;2.83;;;0.80;;
71600;SDS011;59446;52.192;4.628;2022-11-15T13:49:46;2.90;;;1.10;;
71600;SDS011;59446;52.192;4.628;2022-11-15T13:52:12;4.10;;;1.07;;
71600;SDS011;59446;52.192;4.628;2022-11-15T13:54:44;2.20;;;1.20;;
71600;SDS011;59446;52.192;4.628;2022-11-15T13:57:26;3.08;;;1.00;;
71600;SDS011;59446;52.192;4.628;2022-11-15T14:00:03;2.27;;;1.07;;
71600;SDS011;59446;52.192;4.628;2022-11-15T14:02:32;4.18;;;1.17;;
71600;SDS011;59446;52.192;4.628;2022-11-15T14:05:00;3.28;;;1.00;;
71600;SDS011;59446;52.192;4.628;2022-11-15T14:07:40;1.93;;;0.80;;
71600;SDS011;59446;52.192;4.628;2022-11-15T14:10:29;2.55;;;1.10;;
71600;SDS011;59446;52.192;4.628;2022-11-15T14:13:01;1.50;;;0.90;;
71600;SDS011;59446;52.192;4.628;2022-11-15T14:15:31;2.10;;;0.60;;
71600;SDS011;59446;52.192;4.628;2022-11-15T14:17:58;2.10;;;0.88;;
71600;SDS011;59446;52.192;4.628;2022-11-15T14:20:34;2.05;;;1.17;;
71600;SDS011;59446;52.192;4.628;2022-11-15T14:23:03;4.20;;;0.93;;
71600;SDS011;59446;52.192;4.628;2022-11-15T14:28:08;2.25;;;0.93;;
71600;SDS011;59446;52.192;4.628;2022-11-15T14:30:33;2.10;;;0.90;;
71600;SDS011;59446;52.192;4.628;2022-11-15T14:32:59;2.13;;;0.80;;
71600;SDS011;59446;52.192;4.628;2022-11-15T14:35:24;2.17;;;1.00;;
71600;SDS011;59446;52.192;4.628;2022-11-15T14:37:49;2.57;;;0.80;;
71600;SDS011;59446;52.192;4.628;2022-11-15T14:40:16;2.23;;;0.90;;
71600;SDS011;59446;52.192;4.628;2022-11-15T14:42:44;3.97;;;0.88;;
71600;SDS011;59446;52.192;4.628;2022-11-15T14:45:20;1.67;;;0.80;;
71600;SDS011;59446;52.192;4.628;2022-11-15T14:47:47;1.47;;;0.90;;
71600;SDS011;59446;52.192;4.628;2022-11-15T14:50:13;1.70;;;0.80;;
71600;SDS011;59446;52.192;4.628;2022-11-15T14:52:43;2.47;;;0.90;;
71600;SDS011;59446;52.192;4.628;2022-11-15T14:55:18;1.27;;;0.87;;
71600;SDS011;59446;52.192;4.628;2022-11-15T14:57:48;1.90;;;1.00;;
71600;SDS011;59446;52.192;4.628;2022-11-15T15:00:13;1.23;;;0.90;;
71600;SDS011;59446;52.192;4.628;2022-11-15T15:02:40;1.50;;;0.90;;
71600;SDS011;59446;52.192;4.628;2022-11-15T15:07:37;1.97;;;0.90;;
71600;SDS011;59446;52.192;4.628;2022-11-15T15:10:03;1.55;;;0.93;;
71600;SDS011;59446;52.192;4.628;2022-11-15T15:12:28;1.20;;;0.73;;
71600;SDS011;59446;52.192;4.628;2022-11-15T15:14:55;2.15;;;0.90;;
71600;SDS011;59446;52.192;4.628;2022-11-15T15:17:20;1.20;;;0.60;;
71600;SDS011;59446;52.192;4.628;2022-11-15T15:19:46;1.80;;;0.73;;
71600;SDS011;59446;52.192;4.628;2022-11-15T15:22:15;1.10;;;0.80;;
71600;SDS011;59446;52.192;4.628;2022-11-15T15:24:43;3.37;;;0.80;;
71600;SDS011;59446;52.192;4.628;2022-11-15T15:27:10;4.05;;;1.42;;
71600;SDS011;59446;52.192;4.628;2022-11-15T15:29:35;2.27;;;0.63;;
71600;SDS011;59446;52.192;4.628;2022-11-15T15:32:01;2.30;;;0.80;;
71600;SDS011;59446;52.192;4.628;2022-11-15T15:34:26;1.17;;;0.70;;
71600;SDS011;59446;52.192;4.628;2022-11-15T15:39:58;2.10;;;0.80;;
71600;SDS011;59446;52.192;4.628;2022-11-15T15:42:24;2.10;;;0.93;;
71600;SDS011;59446;52.192;4.628;2022-11-15T15:44:50;2.03;;;0.73;;
71600;SDS011;59446;52.192;4.628;2022-11-15T15:47:17;2.15;;;0.80;;
71600;SDS011;59446;52.192;4.628;2022-11-15T15:49:44;2.10;;;1.13;;
71600;SDS011;59446;52.192;4.628;2022-11-15T15:52:10;1.47;;;0.90;;
71600;SDS011;59446;52.192;4.628;2022-11-15T15:54:36;1.15;;;0.75;;
71600;SDS011;59446;52.192;4.628;2022-11-15T15:57:03;5.97;;;0.80;;
71600;SDS011;59446;52.192;4.628;2022-11-15T15:59:29;1.53;;;0.80;;
71600;SDS011;59446;52.192;4.628;2022-11-15T16:01:55;1.27;;;0.85;;
71600;SDS011;59446;52.192;4.628;2022-11-15T16:04:21;1.60;;;0.73;;
71600;SDS011;59446;52.192;4.628;2022-11-15T16:06:46;1.57;;;0.60;;
71600;SDS011;59446;52.192;4.628;2022-11-15T16:09:15;1.33;;;0.82;;
71600;SDS011;59446;52.192;4.628;2022-11-15T16:11:43;2.30;;;1.00;;
71600;SDS011;59446;52.192;4.628;2022-11-15T16:14:09;1.90;;;0.90;;
71600;SDS011;59446;52.192;4.628;2022-11-15T16:16:35;2.43;;;1.23;;
71600;SDS011;59446;52.192;4.628;2022-11-15T16:19:01;1.25;;;0.57;;
71600;SDS011;59446;52.192;4.628;2022-11-15T16:21:27;2.35;;;0.73;;
71600;SDS011;59446;52.192;4.628;2022-11-15T16:23:53;0.80;;;0.60;;
71600;SDS011;59446;52.192;4.628;2022-11-15T16:26:23;2.20;;;0.73;;
71600;SDS011;59446;52.192;4.628;2022-11-15T16:28:54;1.77;;;0.82;;
71600;SDS011;59446;52.192;4.628;2022-11-15T16:31:19;2.00;;;0.80;;
71600;SDS011;59446;52.192;4.628;2022-11-15T16:33:48;2.75;;;0.88;;
71600;SDS011;59446;52.192;4.628;2022-11-15T16:38:49;1.13;;;0.70;;